createdAt,value
2017-12-15T00:00:15.824Z,1.10
2017-12-15T00:01:17.120Z,1.10
2017-12-15T00:02:18.414Z,1.00
2017-12-15T00:03:19.735Z,1.00
2017-12-15T00:04:21.095Z,1.10
2017-12-15T00:05:22.398Z,1.10
2017-12-15T00:06:23.704Z,1.03
2017-12-15T00:07:25.740Z,0.87
2017-12-15T00:08:27.037Z,0.90
2017-12-15T00:09:28.691Z,1.20
2017-12-15T00:10:30.024Z,1.10
2017-12-15T00:11:31.317Z,1.00
2017-12-15T00:12:32.608Z,1.10
2017-12-15T00:13:33.900Z,1.10
2017-12-15T00:14:35.217Z,1.07
2017-12-15T00:15:36.516Z,1.00
2017-12-15T00:16:38.556Z,1.10
2017-12-15T00:17:39.898Z,1.00
2017-12-15T00:18:41.207Z,1.00
2017-12-15T00:19:42.616Z,1.00
2017-12-15T00:20:44.682Z,1.10
2017-12-15T00:21:45.988Z,1.20
2017-12-15T00:22:47.284Z,1.10
2017-12-15T00:23:48.596Z,1.40
2017-12-15T00:24:50.676Z,1.10
2017-12-15T00:25:51.980Z,1.00
2017-12-15T00:26:53.300Z,1.10
2017-12-15T00:27:54.614Z,0.80
2017-12-15T00:28:55.916Z,1.00
2017-12-15T00:29:57.492Z,1.00
2017-12-15T00:30:58.784Z,1.13
2017-12-15T00:32:00.116Z,0.80
2017-12-15T00:33:01.459Z,0.80
2017-12-15T00:34:02.778Z,0.80
2017-12-15T00:35:04.384Z,0.90
2017-12-15T00:36:05.708Z,0.90
2017-12-15T00:37:07.005Z,1.00
2017-12-15T00:38:08.290Z,0.90
2017-12-15T00:39:09.584Z,1.00
2017-12-15T00:40:11.148Z,0.90
2017-12-15T00:41:12.435Z,0.90
2017-12-15T00:42:13.744Z,1.00
2017-12-15T00:43:15.036Z,1.07
2017-12-15T00:44:16.332Z,1.00
2017-12-15T00:45:17.872Z,1.13
2017-12-15T00:46:19.176Z,1.13
2017-12-15T00:47:21.242Z,1.10
2017-12-15T00:48:23.278Z,1.00
2017-12-15T00:49:24.600Z,1.07
2017-12-15T00:50:26.235Z,1.23
2017-12-15T00:51:27.556Z,1.30
2017-12-15T00:52:28.884Z,1.10
2017-12-15T00:53:30.954Z,1.00
2017-12-15T00:54:32.240Z,1.10
2017-12-15T00:55:33.864Z,1.30
2017-12-15T00:56:35.156Z,1.00
2017-12-15T00:57:37.258Z,0.90
2017-12-15T00:58:38.583Z,0.80
2017-12-15T00:59:40.616Z,1.10
2017-12-15T01:00:42.176Z,0.90
2017-12-15T01:01:43.464Z,1.10
2017-12-15T01:02:44.772Z,1.30
2017-12-15T01:03:46.848Z,1.07
2017-12-15T01:04:48.144Z,1.10
2017-12-15T01:05:49.756Z,1.20
2017-12-15T01:06:51.072Z,1.03
2017-12-15T01:07:53.127Z,1.00
2017-12-15T01:08:55.176Z,1.10
2017-12-15T01:09:56.496Z,0.93
2017-12-15T01:10:58.088Z,1.00
2017-12-15T01:12:00.154Z,1.00
2017-12-15T01:13:02.192Z,1.33
2017-12-15T01:14:03.462Z,1.60
2017-12-15T01:15:04.782Z,1.50
2017-12-15T01:16:07.125Z,1.50
2017-12-15T01:17:08.427Z,1.43
2017-12-15T01:18:09.735Z,1.30
2017-12-15T01:19:11.779Z,1.40
2017-12-15T01:20:13.092Z,1.30
2017-12-15T01:21:14.696Z,1.30
2017-12-15T01:22:16.776Z,1.13
2017-12-15T01:23:18.042Z,1.17
2017-12-15T01:24:19.348Z,1.00
2017-12-15T01:25:21.420Z,0.80
2017-12-15T01:26:22.742Z,1.00
2017-12-15T01:27:24.784Z,0.80
2017-12-15T01:28:26.082Z,0.90
2017-12-15T01:29:27.385Z,0.80
2017-12-15T01:30:29.396Z,0.90
2017-12-15T01:31:30.960Z,0.90
2017-12-15T01:32:32.256Z,1.07
2017-12-15T01:33:33.553Z,0.80
2017-12-15T01:34:34.860Z,0.90
2017-12-15T01:35:36.158Z,1.10
2017-12-15T01:36:37.741Z,1.33
2017-12-15T01:37:39.021Z,1.30
2017-12-15T01:38:40.332Z,1.60
2017-12-15T01:39:41.642Z,1.60
2017-12-15T01:40:43.698Z,1.30
2017-12-15T01:41:46.026Z,1.20
2017-12-15T01:42:47.364Z,1.30
2017-12-15T01:43:48.643Z,1.07
2017-12-15T01:44:51.877Z,1.30
2017-12-15T01:45:53.170Z,1.30
2017-12-15T01:46:54.483Z,1.40
2017-12-15T01:47:55.771Z,1.20
2017-12-15T01:48:57.793Z,1.10
2017-12-15T01:49:59.074Z,1.30
2017-12-15T01:51:01.113Z,1.40
2017-12-15T01:52:02.432Z,1.17
2017-12-15T01:53:03.722Z,1.20
2017-12-15T01:54:05.790Z,1.10
2017-12-15T01:55:07.112Z,1.23
2017-12-15T01:56:08.427Z,1.20
2017-12-15T01:57:10.007Z,1.20
2017-12-15T01:58:12.082Z,1.13
2017-12-15T01:59:14.121Z,1.00
2017-12-15T02:00:16.163Z,1.20
2017-12-15T02:01:17.460Z,1.20
2017-12-15T02:02:19.041Z,1.20
2017-12-15T02:03:20.319Z,1.23
2017-12-15T02:04:22.390Z,1.23
2017-12-15T02:05:24.423Z,1.00
2017-12-15T02:06:25.708Z,1.10
2017-12-15T02:07:27.285Z,1.00
2017-12-15T02:08:28.573Z,1.17
2017-12-15T02:09:29.876Z,1.00
2017-12-15T02:10:31.158Z,1.23
2017-12-15T02:11:32.438Z,1.07
2017-12-15T02:12:33.987Z,1.10
2017-12-15T02:13:35.263Z,1.30
2017-12-15T02:14:36.570Z,1.00
2017-12-15T02:15:37.894Z,1.10
2017-12-15T02:16:39.931Z,1.00
2017-12-15T02:17:41.480Z,1.17
2017-12-15T02:18:42.776Z,1.40
2017-12-15T02:19:44.097Z,1.37
2017-12-15T02:20:45.426Z,1.20
2017-12-15T02:21:47.458Z,1.30
2017-12-15T02:22:48.770Z,1.10
2017-12-15T02:23:50.061Z,1.10
2017-12-15T02:24:52.082Z,1.00
2017-12-15T02:25:53.412Z,0.90
2017-12-15T02:26:54.717Z,1.30
2017-12-15T02:27:57.039Z,1.30
2017-12-15T02:28:58.327Z,1.20
2017-12-15T02:30:00.356Z,0.97
2017-12-15T02:31:01.635Z,1.20
2017-12-15T02:32:02.948Z,1.23
2017-12-15T02:33:04.463Z,1.03
2017-12-15T02:34:05.731Z,1.20
2017-12-15T02:35:07.012Z,1.00
2017-12-15T02:36:09.062Z,1.10
2017-12-15T02:37:11.115Z,1.10
2017-12-15T02:38:13.165Z,1.07
2017-12-15T02:39:14.436Z,1.10
2017-12-15T02:40:15.735Z,0.80
2017-12-15T02:41:17.034Z,1.07
2017-12-15T02:42:18.330Z,1.00
2017-12-15T02:43:19.909Z,1.30
2017-12-15T02:44:21.211Z,1.37
2017-12-15T02:45:22.513Z,1.40
2017-12-15T02:46:23.817Z,1.30
2017-12-15T02:47:25.858Z,1.60
2017-12-15T02:48:27.455Z,1.50
2017-12-15T02:49:28.743Z,1.20
2017-12-15T02:50:30.017Z,1.20
2017-12-15T02:51:32.042Z,1.13
2017-12-15T02:52:33.327Z,1.00
2017-12-15T02:53:35.734Z,1.10
2017-12-15T02:54:37.023Z,1.13
2017-12-15T02:55:39.071Z,1.10
2017-12-15T02:56:40.357Z,1.13
2017-12-15T02:57:41.663Z,1.10
2017-12-15T02:58:43.215Z,1.20
2017-12-15T02:59:45.250Z,1.20
2017-12-15T03:00:46.557Z,1.07
2017-12-15T03:01:47.847Z,1.00
2017-12-15T03:02:49.159Z,1.00
2017-12-15T03:03:50.809Z,0.97
2017-12-15T03:04:52.108Z,1.00
2017-12-15T03:05:54.135Z,1.10
2017-12-15T03:06:55.437Z,1.00
2017-12-15T03:07:56.746Z,0.90
2017-12-15T03:08:59.078Z,1.00
2017-12-15T03:10:01.112Z,0.97
2017-12-15T03:11:02.419Z,1.03
2017-12-15T03:12:04.505Z,1.27
2017-12-15T03:13:05.803Z,1.10
2017-12-15T03:14:08.336Z,1.33
2017-12-15T03:15:09.615Z,0.80
2017-12-15T03:16:10.903Z,0.90
2017-12-15T03:17:12.190Z,1.00
2017-12-15T03:18:13.488Z,1.10
2017-12-15T03:19:15.045Z,0.97
2017-12-15T03:20:16.338Z,1.10
2017-12-15T03:21:17.640Z,0.97
2017-12-15T03:22:18.935Z,1.10
2017-12-15T03:23:20.963Z,1.03
2017-12-15T03:24:22.596Z,1.10
2017-12-15T03:25:23.898Z,1.00
2017-12-15T03:26:25.947Z,1.30
2017-12-15T03:27:27.977Z,1.17
2017-12-15T03:28:29.277Z,1.10
2017-12-15T03:29:30.835Z,1.27
2017-12-15T03:30:32.157Z,1.50
2017-12-15T03:31:33.444Z,1.50
2017-12-15T03:32:34.737Z,1.63
2017-12-15T03:33:36.019Z,1.70
2017-12-15T03:34:37.570Z,1.90
2017-12-15T03:35:38.842Z,1.80
2017-12-15T03:36:40.117Z,1.60
2017-12-15T03:37:41.406Z,1.93
2017-12-15T03:38:42.688Z,1.90
2017-12-15T03:39:44.745Z,1.77
2017-12-15T03:40:46.775Z,1.73
2017-12-15T03:41:48.075Z,1.63
2017-12-15T03:42:49.363Z,1.37
2017-12-15T03:43:50.658Z,1.30
2017-12-15T03:44:52.230Z,1.43
2017-12-15T03:45:53.524Z,1.20
2017-12-15T03:46:55.542Z,1.20
2017-12-15T03:47:56.831Z,1.10
2017-12-15T03:48:58.865Z,1.07
2017-12-15T03:50:00.408Z,0.90
2017-12-15T03:51:01.707Z,1.00
2017-12-15T03:52:02.997Z,1.00
2017-12-15T03:53:04.281Z,1.10
2017-12-15T03:54:05.576Z,1.13
2017-12-15T03:55:07.637Z,1.03
2017-12-15T03:56:08.931Z,1.10
2017-12-15T03:57:10.202Z,0.90
2017-12-15T03:58:11.488Z,1.00
2017-12-15T03:59:13.527Z,1.00
2017-12-15T04:00:15.121Z,1.20
2017-12-15T04:01:16.413Z,1.10
2017-12-15T04:02:17.683Z,1.10
2017-12-15T04:03:19.703Z,1.40
2017-12-15T04:04:20.993Z,1.10
2017-12-15T04:05:23.294Z,1.20
2017-12-15T04:06:24.577Z,1.10
2017-12-15T04:07:25.871Z,1.20
2017-12-15T04:08:27.155Z,1.10
2017-12-15T04:09:28.451Z,1.20
2017-12-15T04:10:30.015Z,1.30
2017-12-15T04:11:31.294Z,1.27
2017-12-15T04:12:32.614Z,1.50
2017-12-15T04:13:33.916Z,1.37
2017-12-15T04:14:35.947Z,1.70
2017-12-15T04:15:37.522Z,1.60
2017-12-15T04:16:38.810Z,1.80
2017-12-15T04:17:40.132Z,1.47
2017-12-15T04:18:41.430Z,1.00
2017-12-15T04:19:42.721Z,1.10
2017-12-15T04:20:44.290Z,1.10
2017-12-15T04:21:45.605Z,1.20
2017-12-15T04:22:46.916Z,1.10
2017-12-15T04:23:48.962Z,1.10
2017-12-15T04:24:50.242Z,1.07
2017-12-15T04:25:51.817Z,1.20
2017-12-15T04:26:53.113Z,0.80
2017-12-15T04:27:55.142Z,0.90
2017-12-15T04:28:56.455Z,0.90
2017-12-15T04:29:57.744Z,0.90
2017-12-15T04:31:00.063Z,1.03
2017-12-15T04:32:01.363Z,0.90
2017-12-15T04:33:03.401Z,0.90
2017-12-15T04:34:04.718Z,0.70
2017-12-15T04:35:06.014Z,0.80
2017-12-15T04:36:08.356Z,0.60
2017-12-15T04:37:09.676Z,0.60
2017-12-15T04:38:10.984Z,0.57
2017-12-15T04:39:12.285Z,0.60
2017-12-15T04:40:13.610Z,0.70
2017-12-15T04:41:15.231Z,0.50
2017-12-15T04:42:16.561Z,0.50
2017-12-15T04:43:17.877Z,0.40
2017-12-15T04:44:19.951Z,0.40
2017-12-15T04:45:21.994Z,0.47
2017-12-15T04:46:24.331Z,0.40
2017-12-15T04:47:26.391Z,0.40
2017-12-15T04:48:27.682Z,0.50
2017-12-15T04:49:29.724Z,0.60
2017-12-15T04:50:31.051Z,0.40
2017-12-15T04:51:32.650Z,0.40
2017-12-15T04:52:33.995Z,0.60
2017-12-15T04:53:35.286Z,0.40
2017-12-15T04:54:36.589Z,0.40
2017-12-15T04:55:37.882Z,0.50
2017-12-15T04:56:39.476Z,0.40
2017-12-15T04:57:40.795Z,0.40
2017-12-15T04:58:42.849Z,0.50
2017-12-15T04:59:44.891Z,0.70
2017-12-15T05:00:46.203Z,1.10
2017-12-15T05:01:47.827Z,0.90
2017-12-15T05:02:49.136Z,0.70
2017-12-15T05:03:50.458Z,0.80
2017-12-15T05:04:51.735Z,0.90
2017-12-15T05:05:53.790Z,0.77
2017-12-15T05:06:55.831Z,0.80
2017-12-15T05:07:57.133Z,0.80
2017-12-15T05:08:59.015Z,0.87
2017-12-15T05:10:00.302Z,0.90
2017-12-15T05:11:01.610Z,0.80
2017-12-15T05:12:02.937Z,1.00
2017-12-15T05:13:04.248Z,0.90
2017-12-15T05:14:05.562Z,0.90
2017-12-15T05:15:07.615Z,1.17
2017-12-15T05:16:09.674Z,1.10
2017-12-15T05:17:12.012Z,1.13
2017-12-15T05:18:13.334Z,1.10
2017-12-15T05:19:14.650Z,1.03
2017-12-15T05:20:15.953Z,2.20
2017-12-15T05:21:17.257Z,5.67
2017-12-15T05:22:18.554Z,5.17
2017-12-15T05:23:20.598Z,3.60
2017-12-15T05:24:21.910Z,2.70
2017-12-15T05:25:23.950Z,1.90
2017-12-15T05:26:25.260Z,1.73
2017-12-15T05:27:27.318Z,2.00
2017-12-15T05:28:29.391Z,1.80
2017-12-15T05:29:31.431Z,1.40
2017-12-15T05:30:32.730Z,1.40
2017-12-15T05:31:34.020Z,1.50
2017-12-15T05:32:35.341Z,1.70
2017-12-15T05:33:36.635Z,1.30
2017-12-15T05:34:37.938Z,1.40
2017-12-15T05:35:39.242Z,1.50
2017-12-15T05:36:40.551Z,1.67
2017-12-15T05:37:42.624Z,1.60
2017-12-15T05:38:43.902Z,1.70
2017-12-15T05:39:45.941Z,1.63
2017-12-15T05:40:47.255Z,1.50
2017-12-15T05:41:48.557Z,1.50
2017-12-15T05:42:50.162Z,1.77
2017-12-15T05:43:51.463Z,1.70
2017-12-15T05:44:52.796Z,1.53
2017-12-15T05:45:54.122Z,1.80
2017-12-15T05:46:55.448Z,1.80
2017-12-15T05:47:56.762Z,1.47
2017-12-15T05:48:58.811Z,1.30
2017-12-15T05:50:00.874Z,1.30
2017-12-15T05:51:02.919Z,1.27
2017-12-15T05:52:04.245Z,1.50
2017-12-15T05:53:05.555Z,2.03
2017-12-15T05:54:06.843Z,1.50
2017-12-15T05:55:08.131Z,1.77
2017-12-15T05:56:09.421Z,2.00
2017-12-15T05:57:10.699Z,2.10
2017-12-15T05:58:13.070Z,1.70
2017-12-15T05:59:14.373Z,1.90
2017-12-15T06:00:15.665Z,1.80
2017-12-15T06:01:16.939Z,1.50
2017-12-15T06:02:18.215Z,1.30
2017-12-15T06:03:19.801Z,1.30
2017-12-15T06:04:21.083Z,1.40
2017-12-15T06:05:22.362Z,1.10
2017-12-15T06:06:24.399Z,1.07
2017-12-15T06:07:25.680Z,0.90
2017-12-15T06:08:26.997Z,0.80
2017-12-15T06:09:29.019Z,0.90
2017-12-15T06:10:30.325Z,0.90
2017-12-15T06:11:31.607Z,0.87
2017-12-15T06:12:33.633Z,1.13
2017-12-15T06:13:35.009Z,0.90
2017-12-15T06:14:36.340Z,0.90
2017-12-15T06:15:37.625Z,0.80
2017-12-15T06:16:38.947Z,0.90
2017-12-15T06:17:40.236Z,0.80
2017-12-15T06:18:41.649Z,0.80
2017-12-15T06:19:42.957Z,0.90
2017-12-15T06:20:44.263Z,0.80
2017-12-15T06:21:46.333Z,0.80
2017-12-15T06:22:47.661Z,0.83
2017-12-15T06:23:50.051Z,0.80
2017-12-15T06:24:51.387Z,0.90
2017-12-15T06:25:52.720Z,1.20
2017-12-15T06:26:54.789Z,0.90
2017-12-15T06:27:56.115Z,1.03
2017-12-15T06:28:58.211Z,1.20
2017-12-15T06:29:59.579Z,0.90
2017-12-15T06:31:00.933Z,1.00
2017-12-15T06:32:03.045Z,1.00
2017-12-15T06:33:04.412Z,1.10
2017-12-15T06:34:05.800Z,0.93
2017-12-15T06:35:07.136Z,0.90
2017-12-15T06:36:08.456Z,0.80
2017-12-15T06:37:09.764Z,0.80
2017-12-15T06:38:11.073Z,1.00
2017-12-15T06:39:12.424Z,0.97
2017-12-15T06:40:14.539Z,1.17
2017-12-15T06:41:15.867Z,1.27
2017-12-15T06:42:17.185Z,1.47
2017-12-15T06:43:19.224Z,1.50
2017-12-15T06:44:20.803Z,1.50
2017-12-15T06:45:22.171Z,1.43
2017-12-15T06:46:23.459Z,1.50
2017-12-15T06:47:24.775Z,1.30
2017-12-15T06:48:26.087Z,1.63
2017-12-15T06:49:27.403Z,1.50
2017-12-15T06:50:29.479Z,1.40
2017-12-15T06:51:30.793Z,1.60
2017-12-15T06:52:32.107Z,1.20
2017-12-15T06:53:33.399Z,1.30
2017-12-15T06:54:35.447Z,1.40
2017-12-15T06:55:37.492Z,1.60
2017-12-15T06:56:38.796Z,1.60
2017-12-15T06:57:40.143Z,1.50
2017-12-15T06:58:41.435Z,1.20
2017-12-15T06:59:43.742Z,1.30
2017-12-15T07:00:45.033Z,1.40
2017-12-15T07:01:46.303Z,1.57
2017-12-15T07:02:47.583Z,1.40
2017-12-15T07:03:48.882Z,1.60
2017-12-15T07:04:50.936Z,1.77
2017-12-15T07:05:52.954Z,1.50
2017-12-15T07:06:54.240Z,1.60
2017-12-15T07:07:56.308Z,1.50
2017-12-15T07:08:58.332Z,1.50
2017-12-15T07:09:59.891Z,1.90
2017-12-15T07:11:01.175Z,1.50
2017-12-15T07:12:02.446Z,1.77
2017-12-15T07:13:03.723Z,1.93
2017-12-15T07:14:05.003Z,2.07
2017-12-15T07:15:06.305Z,2.23
2017-12-15T07:16:07.590Z,2.00
2017-12-15T07:17:08.862Z,2.10
2017-12-15T07:18:10.886Z,1.80
2017-12-15T07:19:12.191Z,2.07
2017-12-15T07:20:14.492Z,1.80
2017-12-15T07:21:15.775Z,2.00
2017-12-15T07:22:17.058Z,1.53
2017-12-15T07:23:19.077Z,1.50
2017-12-15T07:24:20.350Z,1.80
2017-12-15T07:25:22.388Z,1.70
2017-12-15T07:26:23.685Z,1.40
2017-12-15T07:27:24.975Z,1.67
2017-12-15T07:28:26.284Z,1.50
2017-12-15T07:29:27.580Z,1.47
2017-12-15T07:30:29.979Z,1.37
2017-12-15T07:31:31.263Z,1.57
2017-12-15T07:32:32.554Z,1.70
2017-12-15T07:33:33.846Z,1.50
2017-12-15T07:34:35.880Z,1.50
2017-12-15T07:35:37.511Z,1.27
2017-12-15T07:36:38.818Z,1.47
2017-12-15T07:37:40.083Z,1.30
2017-12-15T07:38:42.106Z,1.40
2017-12-15T07:39:43.423Z,1.63
2017-12-15T07:40:45.007Z,1.70
2017-12-15T07:41:46.329Z,1.70
2017-12-15T07:42:48.383Z,1.90
2017-12-15T07:43:49.683Z,1.70
2017-12-15T07:44:50.984Z,1.67
2017-12-15T07:45:52.594Z,1.70
2017-12-15T07:46:53.906Z,1.50
2017-12-15T07:47:55.963Z,1.30
2017-12-15T07:48:58.026Z,1.10
2017-12-15T07:50:00.079Z,1.20
2017-12-15T07:51:01.771Z,1.00
2017-12-15T07:52:03.091Z,1.10
2017-12-15T07:53:05.143Z,1.10
2017-12-15T07:54:07.194Z,0.97
2017-12-15T07:55:08.516Z,1.20
2017-12-15T07:56:10.230Z,1.03
2017-12-15T07:57:11.542Z,1.00
2017-12-15T07:58:13.592Z,1.20
2017-12-15T07:59:15.635Z,0.80
2017-12-15T08:00:16.958Z,1.40
2017-12-15T08:01:18.583Z,1.20
2017-12-15T08:02:19.899Z,1.70
2017-12-15T08:03:21.961Z,1.80
2017-12-15T08:04:24.014Z,2.40
2017-12-15T08:05:26.059Z,2.20
2017-12-15T08:06:27.629Z,1.90
2017-12-15T08:07:29.699Z,1.93
2017-12-15T08:08:31.015Z,2.43
2017-12-15T08:09:32.337Z,3.30
2017-12-15T08:10:33.651Z,2.80
2017-12-15T08:11:35.232Z,1.87
2017-12-15T08:12:36.556Z,1.67
2017-12-15T08:13:37.883Z,2.00
2017-12-15T08:14:39.197Z,1.90
2017-12-15T08:15:41.247Z,2.30
2017-12-15T08:16:43.561Z,2.57
2017-12-15T08:17:44.863Z,2.33
2017-12-15T08:18:46.903Z,2.57
2017-12-15T08:19:48.215Z,2.40
2017-12-15T08:20:49.557Z,2.53
2017-12-15T08:21:51.081Z,2.30
2017-12-15T08:22:52.383Z,2.37
2017-12-15T08:23:53.687Z,4.10
2017-12-15T08:24:55.011Z,5.70
2017-12-15T08:25:56.291Z,5.80
2017-12-15T08:26:57.877Z,5.90
2017-12-15T08:27:59.910Z,8.87
2017-12-15T08:29:01.205Z,10.50
2017-12-15T08:30:02.531Z,6.67
2017-12-15T08:31:04.561Z,5.53
2017-12-15T08:32:06.161Z,3.60
2017-12-15T08:33:07.483Z,3.47
2017-12-15T08:34:09.550Z,3.60
2017-12-15T08:35:10.867Z,2.97
2017-12-15T08:36:12.177Z,2.93
2017-12-15T08:37:13.797Z,2.40
2017-12-15T08:38:15.095Z,2.10
2017-12-15T08:39:16.395Z,1.90
2017-12-15T08:40:17.705Z,1.93
2017-12-15T08:41:19.757Z,1.73
2017-12-15T08:42:22.087Z,2.30
2017-12-15T08:43:23.407Z,2.20
2017-12-15T08:44:24.737Z,2.10
2017-12-15T08:45:26.069Z,1.53
2017-12-15T08:46:28.195Z,1.60
2017-12-15T08:47:29.743Z,1.57
2017-12-15T08:48:31.067Z,1.10
2017-12-15T08:49:32.373Z,1.03
2017-12-15T08:50:33.689Z,1.30
2017-12-15T08:51:35.722Z,1.50
2017-12-15T08:52:38.055Z,1.53
2017-12-15T08:53:39.379Z,1.70
2017-12-15T08:54:40.695Z,1.80
2017-12-15T08:55:42.003Z,2.00
2017-12-15T08:56:43.303Z,2.20
2017-12-15T08:57:44.971Z,2.50
2017-12-15T08:58:46.275Z,2.57
2017-12-15T08:59:47.575Z,2.50
2017-12-15T09:00:48.874Z,2.47
2017-12-15T09:01:50.906Z,2.70
2017-12-15T09:02:52.579Z,1.70
2017-12-15T09:04:00.619Z,1.90
2017-12-15T09:05:01.939Z,1.40
2017-12-15T09:06:03.311Z,1.70
2017-12-15T09:07:04.603Z,1.40
2017-12-15T09:08:06.200Z,1.70
2017-12-15T09:09:07.521Z,2.73
2017-12-15T09:10:08.807Z,2.27
2017-12-15T09:11:10.115Z,2.47
2017-12-15T09:12:11.415Z,2.50
2017-12-15T09:13:13.050Z,2.07
2017-12-15T09:14:14.383Z,1.70
2017-12-15T09:15:15.709Z,1.70
2017-12-15T09:16:17.033Z,1.50
2017-12-15T09:17:18.367Z,1.80
2017-12-15T09:18:19.917Z,1.70
2017-12-15T09:19:21.228Z,1.80
2017-12-15T09:20:22.555Z,1.40
2017-12-15T09:21:23.875Z,1.87
2017-12-15T09:22:25.175Z,1.80
2017-12-15T09:23:27.444Z,1.40
2017-12-15T09:24:29.500Z,1.47
2017-12-15T09:25:31.543Z,1.40
2017-12-15T09:26:32.843Z,1.60
2017-12-15T09:27:34.152Z,1.20
2017-12-15T09:28:36.431Z,1.40
2017-12-15T09:29:37.759Z,1.20
2017-12-15T09:30:39.797Z,1.17
2017-12-15T09:31:41.135Z,1.10
2017-12-15T09:32:42.455Z,1.10
2017-12-15T09:33:44.079Z,1.00
2017-12-15T09:34:45.379Z,1.10
2017-12-15T09:35:46.688Z,1.20
2017-12-15T09:36:48.012Z,1.20
2017-12-15T09:37:49.344Z,1.20
2017-12-15T09:38:50.903Z,1.30
2017-12-15T09:39:52.224Z,1.27
2017-12-15T09:40:54.284Z,1.30
2017-12-15T09:41:56.337Z,1.20
2017-12-15T09:42:58.371Z,1.35
2017-12-15T09:43:59.971Z,1.47
2017-12-15T09:45:01.268Z,1.27
2017-12-15T09:46:02.559Z,1.40
2017-12-15T09:47:03.949Z,1.17
2017-12-15T09:48:05.253Z,1.30
2017-12-15T09:49:06.799Z,1.10
2017-12-15T09:50:08.091Z,1.10
2017-12-15T09:51:09.367Z,1.33
2017-12-15T09:52:10.653Z,1.20
2017-12-15T09:53:11.964Z,1.20
2017-12-15T09:54:13.509Z,1.20
2017-12-15T09:55:14.795Z,1.30
2017-12-15T09:56:16.090Z,1.00
2017-12-15T09:57:17.387Z,1.20
2017-12-15T09:58:18.704Z,1.10
2017-12-15T09:59:20.997Z,1.60
2017-12-15T10:00:22.331Z,1.50
2017-12-15T10:01:23.659Z,1.30
2017-12-15T10:02:24.969Z,1.33
2017-12-15T10:03:26.293Z,1.50
2017-12-15T10:04:28.583Z,1.33
2017-12-15T10:05:29.877Z,1.37
2017-12-15T10:06:31.187Z,1.63
2017-12-15T10:07:32.488Z,2.17
2017-12-15T10:08:34.523Z,2.97
2017-12-15T10:09:36.079Z,2.50
2017-12-15T10:10:37.343Z,1.90
2017-12-15T10:11:39.361Z,2.30
2017-12-15T10:12:40.635Z,2.08
2017-12-15T10:13:42.671Z,1.73
2017-12-15T10:14:44.272Z,1.87
2017-12-15T10:15:45.567Z,1.93
2017-12-15T10:16:46.857Z,2.00
2017-12-15T10:17:48.151Z,1.90
2017-12-15T10:18:49.451Z,1.50
2017-12-15T10:19:50.991Z,1.25
2017-12-15T10:20:52.267Z,1.23
2017-12-15T10:21:53.551Z,1.70
2017-12-15T10:22:55.571Z,1.60
2017-12-15T10:23:56.865Z,1.70
2017-12-15T10:24:58.421Z,2.50
2017-12-15T10:25:59.735Z,2.40
2017-12-15T10:27:01.807Z,2.50
2017-12-15T10:28:03.820Z,2.13
2017-12-15T10:29:05.127Z,2.40
2017-12-15T10:30:06.679Z,2.70
2017-12-15T10:31:07.972Z,2.10
2017-12-15T10:32:09.275Z,2.10
2017-12-15T10:33:10.572Z,2.40
2017-12-15T10:34:12.607Z,2.00
2017-12-15T10:35:14.139Z,2.40
2017-12-15T10:36:15.456Z,2.60
2017-12-15T10:37:16.755Z,2.00
2017-12-15T10:38:18.070Z,1.87
2017-12-15T10:39:19.371Z,1.67
2017-12-15T10:40:20.891Z,1.80
2017-12-15T10:41:22.174Z,1.70
2017-12-15T10:42:23.483Z,1.58
2017-12-15T10:43:25.528Z,1.27
2017-12-15T10:44:26.816Z,1.30
2017-12-15T10:45:28.367Z,1.20
2017-12-15T10:46:29.651Z,1.53
2017-12-15T10:47:31.015Z,1.30
2017-12-15T10:48:32.294Z,1.47
2017-12-15T10:49:33.595Z,1.43
2017-12-15T10:50:35.188Z,1.50
2017-12-15T10:51:36.501Z,1.53
2017-12-15T10:52:38.547Z,1.60
2017-12-15T10:53:39.839Z,1.40
2017-12-15T10:54:41.144Z,1.53
2017-12-15T10:55:43.443Z,1.60
2017-12-15T10:56:44.715Z,1.63
2017-12-15T10:57:46.747Z,1.43
2017-12-15T10:58:48.039Z,1.43
2017-12-15T10:59:49.317Z,1.53
2017-12-15T11:00:50.855Z,1.30
2017-12-15T11:01:52.871Z,1.50
2017-12-15T11:02:54.169Z,2.10
2017-12-15T11:03:55.444Z,3.40
2017-12-15T11:04:56.746Z,2.23
2017-12-15T11:05:59.143Z,2.93
2017-12-15T11:07:00.418Z,1.83
2017-12-15T11:08:01.711Z,1.77
2017-12-15T11:09:03.051Z,1.77
2017-12-15T11:10:04.356Z,1.67
2017-12-15T11:11:05.891Z,1.40
2017-12-15T11:12:07.918Z,1.60
2017-12-15T11:13:09.195Z,1.60
2017-12-15T11:14:10.475Z,1.40
2017-12-15T11:15:12.491Z,1.60
2017-12-15T11:16:14.037Z,1.70
2017-12-15T11:17:15.327Z,2.40
2017-12-15T11:18:17.368Z,2.30
2017-12-15T11:19:18.688Z,2.20
2017-12-15T11:20:19.996Z,1.80
2017-12-15T11:21:21.541Z,1.87
2017-12-15T11:22:22.843Z,1.50
2017-12-15T11:23:24.135Z,1.37
2017-12-15T11:24:25.436Z,1.20
2017-12-15T11:25:27.487Z,1.50
2017-12-15T11:26:29.079Z,1.03
2017-12-15T11:27:30.415Z,1.13
2017-12-15T11:28:31.720Z,1.10
2017-12-15T11:29:33.023Z,1.00
2017-12-15T11:30:34.336Z,1.00
2017-12-15T11:31:35.865Z,1.20
2017-12-15T11:32:37.927Z,1.50
2017-12-15T11:33:39.988Z,1.50
2017-12-15T11:34:42.107Z,1.37
2017-12-15T11:35:43.415Z,1.30
2017-12-15T11:36:44.975Z,1.20
2017-12-15T11:37:46.295Z,1.20
2017-12-15T11:38:48.340Z,1.13
2017-12-15T11:39:49.672Z,1.30
2017-12-15T11:40:51.002Z,1.20
2017-12-15T11:41:52.563Z,1.00
2017-12-15T11:42:53.857Z,1.07
2017-12-15T11:43:55.140Z,1.40
2017-12-15T11:44:56.457Z,1.30
2017-12-15T11:45:57.756Z,1.00
2017-12-15T11:47:00.033Z,1.10
2017-12-15T11:48:01.420Z,1.00
2017-12-15T11:49:02.732Z,1.20
2017-12-15T11:50:04.052Z,1.23
2017-12-15T11:51:06.120Z,1.20
2017-12-15T11:52:08.517Z,1.00
2017-12-15T11:53:09.840Z,1.40
2017-12-15T11:54:11.148Z,1.30
2017-12-15T11:55:12.477Z,1.00
2017-12-15T11:56:13.811Z,1.20
2017-12-15T11:57:15.478Z,1.50
2017-12-15T11:58:16.759Z,1.40
2017-12-15T11:59:18.063Z,1.37
2017-12-15T12:00:19.400Z,1.30
2017-12-15T12:01:20.703Z,1.00
2017-12-15T12:02:22.251Z,1.30
2017-12-15T12:03:23.563Z,1.30
2017-12-15T12:04:25.603Z,1.50
2017-12-15T12:05:26.916Z,1.57
2017-12-15T12:06:28.223Z,1.30
2017-12-15T12:07:30.511Z,1.20
2017-12-15T12:08:31.816Z,1.17
2017-12-15T12:09:33.857Z,1.30
2017-12-15T12:10:35.192Z,1.17
2017-12-15T12:11:36.526Z,1.07
2017-12-15T12:12:38.083Z,1.00
2017-12-15T12:13:39.371Z,1.13
2017-12-15T12:14:41.416Z,1.43
2017-12-15T12:15:43.479Z,1.20
2017-12-15T12:16:45.541Z,1.60
2017-12-15T12:17:47.812Z,2.27
2017-12-15T12:18:49.867Z,2.50
2017-12-15T12:19:51.941Z,2.50
2017-12-15T12:20:53.267Z,1.90
2017-12-15T12:21:55.332Z,1.90
2017-12-15T12:22:57.709Z,1.97
2017-12-15T12:23:59.020Z,1.87
2017-12-15T12:25:00.309Z,1.67
2017-12-15T12:26:01.629Z,1.40
2017-12-15T12:27:03.668Z,1.50
2017-12-15T12:28:05.055Z,1.70
2017-12-15T12:29:06.339Z,1.80
2017-12-15T12:30:07.653Z,1.80
2017-12-15T12:31:08.971Z,1.50
2017-12-15T12:32:10.285Z,2.50
2017-12-15T12:33:11.628Z,4.60
2017-12-15T12:34:12.940Z,4.87
2017-12-15T12:35:14.243Z,4.57
2017-12-15T12:36:15.532Z,3.10
2017-12-15T12:37:16.839Z,3.33
2017-12-15T12:38:18.196Z,3.47
2017-12-15T12:39:19.503Z,4.80
2017-12-15T12:40:21.535Z,6.03
2017-12-15T12:41:22.820Z,6.33
2017-12-15T12:42:24.107Z,7.17
2017-12-15T12:43:25.451Z,6.80
2017-12-15T12:44:26.767Z,5.20
2017-12-15T12:45:28.063Z,5.60
2017-12-15T12:46:30.084Z,6.90
2017-12-15T12:47:31.376Z,6.00
2017-12-15T12:48:33.515Z,5.40
2017-12-15T12:49:34.805Z,4.90
2017-12-15T12:50:36.104Z,4.20
2017-12-15T12:51:37.371Z,3.10
2017-12-15T12:52:39.400Z,2.50
2017-12-15T12:53:40.742Z,1.90
2017-12-15T12:54:42.028Z,1.70
2017-12-15T12:55:43.327Z,1.70
2017-12-15T12:56:44.624Z,1.80
2017-12-15T12:57:45.915Z,2.20
2017-12-15T12:58:47.255Z,1.50
2017-12-15T12:59:48.575Z,1.60
2017-12-15T13:00:49.875Z,1.42
2017-12-15T13:01:51.919Z,1.93
2017-12-15T13:02:53.984Z,10.47
2017-12-15T13:03:56.087Z,9.53
2017-12-15T13:04:57.403Z,10.80
2017-12-15T13:05:58.719Z,8.77
2017-12-15T13:07:00.043Z,12.23
2017-12-15T13:08:01.356Z,8.17
2017-12-15T13:09:03.307Z,5.00
2017-12-15T13:10:04.603Z,3.43
2017-12-15T13:11:05.914Z,2.77
2017-12-15T13:12:07.212Z,2.60
2017-12-15T13:13:09.248Z,2.00
2017-12-15T13:14:10.849Z,2.00
2017-12-15T13:15:12.151Z,2.87
2017-12-15T13:16:14.180Z,3.23
2017-12-15T13:17:15.486Z,3.20
2017-12-15T13:18:16.810Z,3.60
2017-12-15T13:19:19.259Z,2.80
2017-12-15T13:20:20.598Z,2.20
2017-12-15T13:21:21.926Z,1.70
2017-12-15T13:22:23.236Z,1.47
2017-12-15T13:23:24.523Z,1.43
2017-12-15T13:24:26.067Z,1.33
2017-12-15T13:25:27.393Z,1.50
2017-12-15T13:26:28.735Z,1.50
2017-12-15T13:27:30.098Z,1.33
2017-12-15T13:28:31.447Z,1.30
2017-12-15T13:29:33.015Z,1.10
2017-12-15T13:30:35.076Z,1.30
2017-12-15T13:31:37.126Z,1.57
2017-12-15T13:32:38.435Z,2.27
2017-12-15T13:33:39.739Z,2.60
2017-12-15T13:34:41.291Z,2.30
2017-12-15T13:35:42.615Z,3.80
2017-12-15T13:36:44.655Z,3.37
2017-12-15T13:37:45.971Z,3.07
2017-12-15T13:38:47.291Z,4.10